Main page
METAR-TAF:

METAR-TAF

Airports :

Norrköping Airport

Norrköping, Sweden

latitude: 58-35N, longitude: 016-09E, elevation: 34 m

Current weather observation

The report was made 25 minutes ago, at 09:50 UTC
Wind 5 kt from the West
Temperature 8°C
Humidity 87%
Pressure 1024 hPa
Visibility 10 km or more
no clouds below 1500 m and no cumulonimbus

METAR: ESSP 190950Z 26005KT CAVOK 08/06 Q1024

Time: 12:15 (10:15 UTC)

Forecast

The report was made 1 hour and 45 minutes ago, at 08:30 UTC
Forecast valid from 19 at 09 UTC to 19 at 18 UTC
Wind 3 kt from the West/Southwest
Visibility 10 km or more
no clouds below 1500 m and no cumulonimbus

TAF: ESSP 190830Z 1909/1918 25003KT CAVOK

Weather observations and forecasts of more than 4000 airports (METAR and TAF reports).

The available stations are represented by yellow and red dots on the map.

Hover mouse over dot to see the name of the station.

Then click to see weather observations and forecasts.

To change the map : click on the green buttons with a black cross to zoom in, on the green button with a dash to zoom out, or on the green arrows for adjacent maps.


METAR-TAF: